Terminal Aerodrome Forecast
Issued by NWS Charleston, WV

Current Version | Previous Version | Graphics & Text | Print | Product List | Glossary On
Versions: 1 2 3 4 5 6 7 8 9 10 11 12 13 14 15 16 17 18 19 20 21 22 23 24 25 26
000
FTUS41 KRLX 220307 AAA
TAFCRW
TAF AMD
KCRW 220307Z 2203/2224 00000KT P6SM FEW001 FEW040
     FM220600 VRB03KT 5SM BR FEW001
     FM220900 00000KT 2SM BR SCT001
     FM221300 VRB03KT 4SM BR SCT001
     FM221400 27005KT P6SM FEW035
     FM221800 30005KT P6SM FEW050=

USA.gov is the U.S. government's official web portal to all federal, state and local government web resources and services.